सभी
Swamp Smith Airport (De Ridder, LA) 34LA मौसम
There is no TAF data available at 34LA or any nearby airports.
There is no METAR data available at 34LA. Showing METAR data for KDRI (6 mi NW).
Recent DRI METAR history (no data for 34LA)
| Date | Time (CDT) | Flight Rules | Wind Dir. | Speed | Type | Height AGL (ft) | Visibility | Temp (°C) | Temp (°F) | Dew Point (°C) | Dew Point (°F) | Rel. Humid. | Pressure | Density Altitude | Remarks |
|---|---|---|---|---|---|---|---|---|---|---|---|---|---|---|---|
| 04-मई | 14:55 | VFR | 200° | 11 kt | 10 miles | 26° | 78° | 12° | 53° | 41% | 29.95 in Hg | 1,491 ft | |||
| 04-मई | 14:35 | VFR | 170° | 10 kt | 10 miles | 26° | 78° | 11° | 51° | 38% | 29.97 in Hg | 1,471 ft | Wind gusting to 19 KT | ||
| 04-मई | 14:15 | VFR | 200° | 12 kt | 10 miles | 26° | 78° | 12° | 53° | 40% | 29.97 in Hg | 1,471 ft | Wind gusting to 17 KT | ||
| 04-मई | 13:55 | VFR | 200° | 13 kt | 10 miles | 26° | 78° | 11° | 51° | 40% | 29.98 in Hg | 1,461 ft | |||
| 04-मई | 13:35 | VFR | 190° | 11 kt | 10 miles | 26° | 78° | 11° | 51° | 40% | 29.99 in Hg | 1,451 ft | Wind gusting to 17 KT | ||
| 04-मई | 13:15 | VFR | 200° | 14 kt | 10 miles | 26° | 78° | 12° | 53° | 41% | 29.99 in Hg | 1,451 ft | Wind gusting to 18 KT | ||
| 04-मई | 12:55 | VFR | 210° | 12 kt | 10 miles | 26° | 78° | 11° | 51° | 41% | 29.99 in Hg | 1,451 ft | |||
| 04-मई | 12:35 | VFR | 200° | 12 kt | 10 miles | 25° | 77° | 11° | 51° | 42% | 30.00 in Hg | 1,321 ft | |||
| 04-मई | 12:15 | VFR | 180° | 8 kt | 10 miles | 24° | 75° | 11° | 51° | 42% | 30.01 in Hg | 1,191 ft | |||
| 04-मई | 11:55 | VFR | 200° | 11 kt | 10 miles | 24° | 75° | 10° | 50° | 41% | 30.02 in Hg | 1,181 ft | Wind gusting to 19 KT | ||
| 04-मई | 11:35 | VFR | 170° | 13 kt | 10 miles | 24° | 75° | 10° | 50° | 40% | 30.03 in Hg | 1,171 ft | |||
| 04-मई | 11:15 | VFR | 200° | 12 kt | 10 miles | 24° | 75° | 10° | 50° | 41% | 30.03 in Hg | 1,171 ft | |||
| 04-मई | 10:55 | VFR | 180° | 12 kt | 10 miles | 23° | 73° | 8° | 46° | 39% | 30.04 in Hg | 1,041 ft | |||
| 04-मई | 10:35 | VFR | 150° | 11 kt | 10 miles | 23° | 73° | 8° | 46° | 36% | 30.04 in Hg | 1,041 ft | |||
| 04-मई | 10:15 | VFR | 180° | 9 kt | 10 miles | 23° | 73° | 9° | 48° | 42% | 30.03 in Hg | 1,051 ft | Wind gusting to 17 KT | ||
| 04-मई | 09:55 | VFR | 190° | 8 kt | 10 miles | 22° | 71° | 11° | 51° | 49% | 30.05 in Hg | 911 ft | |||
| 04-मई | 09:35 | VFR | 200° | 9 kt | 10 miles | 21° | 69° | 11° | 51° | 51% | 30.04 in Hg | 801 ft | |||
| 04-मई | 09:15 | VFR | 160° | 6 kt | 10 miles | 21° | 69° | 12° | 53° | 58% | 30.04 in Hg | 801 ft | |||
| 04-मई | 08:55 | VFR | 160° | 4 kt | 10 miles | 20° | 68° | 13° | 55° | 67% | 30.05 in Hg | 671 ft | |||
| 04-मई | 08:35 | VFR | 180° | 4 kt | 10 miles | 18° | 64° | 14° | 57° | 76% | 30.04 in Hg | 441 ft | |||
| 04-मई | 08:15 | VFR | 160° | 3 kt | 10 miles | 17° | 62° | 14° | 57° | 82% | 30.04 in Hg | 321 ft | |||
| 04-मई | 07:55 | VFR | Calm | 10 miles | 15° | 59° | 13° | 55° | 90% | 30.04 in Hg | 81 ft | ||||
| 04-मई | 07:35 | VFR | Calm | 10 miles | 13° | 55° | 13° | 55° | 100% | 30.04 in Hg | -159 ft | ||||
| 04-मई | 07:15 | VFR | Calm | 10 miles | 12° | 53° | 12° | 53° | 100% | 30.04 in Hg | -279 ft |
लॉगिन
| Your browser is unsupported. अपना ब्राऊजर अपग्रेड करें |
